sensor_id;sensor_type;location;lat;lon;timestamp;temperature;humidity
43099;DHT22;28715;51.988;6.020;2023-08-06T00:01:11;17.40;99.90
43099;DHT22;28715;51.988;6.020;2023-08-06T00:03:37;17.40;99.90
43099;DHT22;28715;51.988;6.020;2023-08-06T00:06:04;17.40;99.90
43099;DHT22;28715;51.988;6.020;2023-08-06T00:08:29;17.40;99.90
43099;DHT22;28715;51.988;6.020;2023-08-06T00:10:55;17.50;99.90
43099;DHT22;28715;51.988;6.020;2023-08-06T00:13:20;17.40;99.90
43099;DHT22;28715;51.988;6.020;2023-08-06T00:15:46;17.40;99.90
43099;DHT22;28715;51.988;6.020;2023-08-06T00:18:12;17.40;99.90
43099;DHT22;28715;51.988;6.020;2023-08-06T00:20:40;17.30;99.90
43099;DHT22;28715;51.988;6.020;2023-08-06T00:23:07;17.30;99.90
43099;DHT22;28715;51.988;6.020;2023-08-06T00:25:32;17.30;99.90
43099;DHT22;28715;51.988;6.020;2023-08-06T00:27:58;17.20;99.90
43099;DHT22;28715;51.988;6.020;2023-08-06T00:30:23;17.20;99.90
43099;DHT22;28715;51.988;6.020;2023-08-06T00:32:49;17.20;99.90
43099;DHT22;28715;51.988;6.020;2023-08-06T00:35:14;17.20;99.90
43099;DHT22;28715;51.988;6.020;2023-08-06T00:37:40;17.20;99.90
43099;DHT22;28715;51.988;6.020;2023-08-06T00:40:06;17.20;99.90
43099;DHT22;28715;51.988;6.020;2023-08-06T00:42:32;17.20;99.90
43099;DHT22;28715;51.988;6.020;2023-08-06T00:44:57;17.20;99.90
43099;DHT22;28715;51.988;6.020;2023-08-06T00:47:23;17.30;99.90
43099;DHT22;28715;51.988;6.020;2023-08-06T00:49:48;17.30;99.90
43099;DHT22;28715;51.988;6.020;2023-08-06T00:52:19;17.20;99.90
43099;DHT22;28715;51.988;6.020;2023-08-06T00:54:57;17.20;99.90
43099;DHT22;28715;51.988;6.020;2023-08-06T01:01:01;17.20;99.90
43099;DHT22;28715;51.988;6.020;2023-08-06T01:03:30;17.10;99.90
43099;DHT22;28715;51.988;6.020;2023-08-06T01:06:04;17.10;99.90
43099;DHT22;28715;51.988;6.020;2023-08-06T01:13:30;17.10;99.90
43099;DHT22;28715;51.988;6.020;2023-08-06T01:15:57;17.10;99.90
43099;DHT22;28715;51.988;6.020;2023-08-06T01:18:27;17.10;99.90
43099;DHT22;28715;51.988;6.020;2023-08-06T01:20:53;17.10;99.90
43099;DHT22;28715;51.988;6.020;2023-08-06T01:23:18;17.20;99.90
43099;DHT22;28715;51.988;6.020;2023-08-06T01:31:18;17.10;99.90
43099;DHT22;28715;51.988;6.020;2023-08-06T01:33:47;17.10;99.90
43099;DHT22;28715;51.988;6.020;2023-08-06T01:36:14;17.10;99.90
43099;DHT22;28715;51.988;6.020;2023-08-06T01:38:46;17.20;99.90
43099;DHT22;28715;51.988;6.020;2023-08-06T01:41:18;17.10;99.90
43099;DHT22;28715;51.988;6.020;2023-08-06T01:43:47;17.10;99.90
43099;DHT22;28715;51.988;6.020;2023-08-06T01:46:18;17.20;99.90
43099;DHT22;28715;51.988;6.020;2023-08-06T01:48:52;17.20;99.90
43099;DHT22;28715;51.988;6.020;2023-08-06T01:51:25;17.10;99.90
43099;DHT22;28715;51.988;6.020;2023-08-06T01:53:53;17.20;99.90
43099;DHT22;28715;51.988;6.020;2023-08-06T01:56:22;17.10;99.90
43099;DHT22;28715;51.988;6.020;2023-08-06T01:59:07;17.10;99.90
43099;DHT22;28715;51.988;6.020;2023-08-06T02:01:42;17.10;99.90
43099;DHT22;28715;51.988;6.020;2023-08-06T02:04:10;17.00;99.90
43099;DHT22;28715;51.988;6.020;2023-08-06T02:09:14;17.10;99.90
43099;DHT22;28715;51.988;6.020;2023-08-06T02:11:40;17.10;99.90
43099;DHT22;28715;51.988;6.020;2023-08-06T02:14:05;17.10;99.90
43099;DHT22;28715;51.988;6.020;2023-08-06T02:16:33;17.20;99.90
43099;DHT22;28715;51.988;6.020;2023-08-06T02:19:04;17.20;99.90
43099;DHT22;28715;51.988;6.020;2023-08-06T02:24:34;17.20;99.90
43099;DHT22;28715;51.988;6.020;2023-08-06T02:27:02;17.30;99.90
43099;DHT22;28715;51.988;6.020;2023-08-06T02:29:39;17.30;99.90
43099;DHT22;28715;51.988;6.020;2023-08-06T02:32:21;17.30;99.90
43099;DHT22;28715;51.988;6.020;2023-08-06T02:37:42;17.40;99.90
43099;DHT22;28715;51.988;6.020;2023-08-06T02:40:19;17.40;99.90
43099;DHT22;28715;51.988;6.020;2023-08-06T02:42:47;17.40;99.90
43099;DHT22;28715;51.988;6.020;2023-08-06T02:45:24;17.50;99.90
43099;DHT22;28715;51.988;6.020;2023-08-06T02:48:07;17.50;99.90
43099;DHT22;28715;51.988;6.020;2023-08-06T02:50:51;17.50;99.90
43099;DHT22;28715;51.988;6.020;2023-08-06T02:56:10;17.50;99.90
43099;DHT22;28715;51.988;6.020;2023-08-06T02:58:36;17.50;99.90
43099;DHT22;28715;51.988;6.020;2023-08-06T03:01:16;17.50;99.90
43099;DHT22;28715;51.988;6.020;2023-08-06T03:03:58;17.50;99.90
43099;DHT22;28715;51.988;6.020;2023-08-06T03:06:55;17.60;99.90
43099;DHT22;28715;51.988;6.020;2023-08-06T03:09:29;17.50;99.90
43099;DHT22;28715;51.988;6.020;2023-08-06T03:12:23;17.50;99.90
43099;DHT22;28715;51.988;6.020;2023-08-06T03:15:06;17.50;99.90
43099;DHT22;28715;51.988;6.020;2023-08-06T03:17:37;17.50;99.90
43099;DHT22;28715;51.988;6.020;2023-08-06T03:20:05;17.50;99.90
43099;DHT22;28715;51.988;6.020;2023-08-06T03:22:36;17.50;99.90
43099;DHT22;28715;51.988;6.020;2023-08-06T03:25:37;17.60;99.90
43099;DHT22;28715;51.988;6.020;2023-08-06T03:28:13;17.50;99.90
43099;DHT22;28715;51.988;6.020;2023-08-06T03:30:44;17.50;99.90
43099;DHT22;28715;51.988;6.020;2023-08-06T03:33:16;17.50;99.90
43099;DHT22;28715;51.988;6.020;2023-08-06T03:35:41;17.50;99.90
43099;DHT22;28715;51.988;6.020;2023-08-06T03:38:10;17.50;99.90
43099;DHT22;28715;51.988;6.020;2023-08-06T03:40:35;17.50;99.90
43099;DHT22;28715;51.988;6.020;2023-08-06T03:43:06;17.50;99.90
43099;DHT22;28715;51.988;6.020;2023-08-06T03:45:41;17.50;99.90
43099;DHT22;28715;51.988;6.020;2023-08-06T03:48:11;17.50;99.90
43099;DHT22;28715;51.988;6.020;2023-08-06T03:50:59;17.50;99.90
43099;DHT22;28715;51.988;6.020;2023-08-06T03:56:33;17.50;99.90
43099;DHT22;28715;51.988;6.020;2023-08-06T03:59:20;17.50;99.90
43099;DHT22;28715;51.988;6.020;2023-08-06T04:01:54;17.50;99.90
43099;DHT22;28715;51.988;6.020;2023-08-06T04:04:47;17.50;99.90
43099;DHT22;28715;51.988;6.020;2023-08-06T04:07:38;17.50;99.90
43099;DHT22;28715;51.988;6.020;2023-08-06T04:13:38;17.60;99.90
43099;DHT22;28715;51.988;6.020;2023-08-06T04:19:41;17.60;99.90
43099;DHT22;28715;51.988;6.020;2023-08-06T04:22:38;17.60;99.90
43099;DHT22;28715;51.988;6.020;2023-08-06T04:25:21;17.60;99.90
43099;DHT22;28715;51.988;6.020;2023-08-06T04:34:25;17.60;99.90
43099;DHT22;28715;51.988;6.020;2023-08-06T04:36:59;17.60;99.90
43099;DHT22;28715;51.988;6.020;2023-08-06T04:39:38;17.70;99.90
43099;DHT22;28715;51.988;6.020;2023-08-06T04:42:13;17.70;99.90
43099;DHT22;28715;51.988;6.020;2023-08-06T04:45:12;17.70;99.90
43099;DHT22;28715;51.988;6.020;2023-08-06T04:47:37;17.70;99.90
43099;DHT22;28715;51.988;6.020;2023-08-06T04:50:18;17.70;99.90
43099;DHT22;28715;51.988;6.020;2023-08-06T05:01:34;17.70;99.90
43099;DHT22;28715;51.988;6.020;2023-08-06T05:04:12;17.60;99.90
43099;DHT22;28715;51.988;6.020;2023-08-06T05:06:43;17.70;99.90
43099;DHT22;28715;51.988;6.020;2023-08-06T05:09:11;17.70;99.90
43099;DHT22;28715;51.988;6.020;2023-08-06T05:11:36;17.70;99.90
43099;DHT22;28715;51.988;6.020;2023-08-06T05:14:07;17.70;99.90
43099;DHT22;28715;51.988;6.020;2023-08-06T05:16:35;17.60;99.90
43099;DHT22;28715;51.988;6.020;2023-08-06T05:19:06;17.60;99.90
43099;DHT22;28715;51.988;6.020;2023-08-06T05:21:32;17.60;99.90
43099;DHT22;28715;51.988;6.020;2023-08-06T05:24:00;17.70;99.90
43099;DHT22;28715;51.988;6.020;2023-08-06T05:26:25;17.60;99.90
43099;DHT22;28715;51.988;6.020;2023-08-06T05:28:51;17.60;99.90
43099;DHT22;28715;51.988;6.020;2023-08-06T05:31:16;17.60;99.90
43099;DHT22;28715;51.988;6.020;2023-08-06T05:33:42;17.60;99.90
43099;DHT22;28715;51.988;6.020;2023-08-06T05:36:07;17.60;99.90
43099;DHT22;28715;51.988;6.020;2023-08-06T05:38:33;17.60;99.90
43099;DHT22;28715;51.988;6.020;2023-08-06T05:40:59;17.60;99.90
43099;DHT22;28715;51.988;6.020;2023-08-06T05:43:24;17.60;99.90
43099;DHT22;28715;51.988;6.020;2023-08-06T05:45:50;17.60;99.90
43099;DHT22;28715;51.988;6.020;2023-08-06T05:48:15;17.60;99.90
43099;DHT22;28715;51.988;6.020;2023-08-06T05:50:41;17.60;99.90
43099;DHT22;28715;51.988;6.020;2023-08-06T05:53:09;17.70;99.90
43099;DHT22;28715;51.988;6.020;2023-08-06T05:55:34;17.70;99.90
43099;DHT22;28715;51.988;6.020;2023-08-06T05:58:00;17.70;99.90
43099;DHT22;28715;51.988;6.020;2023-08-06T06:00:26;17.70;99.90
43099;DHT22;28715;51.988;6.020;2023-08-06T06:02:52;17.70;99.90
43099;DHT22;28715;51.988;6.020;2023-08-06T06:05:23;17.70;99.90
43099;DHT22;28715;51.988;6.020;2023-08-06T06:07:49;17.70;99.90
43099;DHT22;28715;51.988;6.020;2023-08-06T06:10:14;17.70;99.90
43099;DHT22;28715;51.988;6.020;2023-08-06T06:12:40;17.80;99.90
43099;DHT22;28715;51.988;6.020;2023-08-06T06:15:06;17.80;99.90
43099;DHT22;28715;51.988;6.020;2023-08-06T06:17:31;17.90;99.90
43099;DHT22;28715;51.988;6.020;2023-08-06T06:19:57;17.90;99.90
43099;DHT22;28715;51.988;6.020;2023-08-06T06:22:22;17.90;99.90
43099;DHT22;28715;51.988;6.020;2023-08-06T06:24:48;18.00;99.90
43099;DHT22;28715;51.988;6.020;2023-08-06T06:27:13;18.00;99.90
43099;DHT22;28715;51.988;6.020;2023-08-06T06:29:39;18.00;99.90
43099;DHT22;28715;51.988;6.020;2023-08-06T06:32:07;18.10;99.90
43099;DHT22;28715;51.988;6.020;2023-08-06T06:34:36;18.10;99.90
43099;DHT22;28715;51.988;6.020;2023-08-06T06:37:01;18.10;99.90
43099;DHT22;28715;51.988;6.020;2023-08-06T06:39:27;18.10;99.90
43099;DHT22;28715;51.988;6.020;2023-08-06T06:41:52;18.20;99.90
43099;DHT22;28715;51.988;6.020;2023-08-06T06:44:18;18.20;99.90
43099;DHT22;28715;51.988;6.020;2023-08-06T06:46:45;18.30;99.90
43099;DHT22;28715;51.988;6.020;2023-08-06T06:49:11;18.30;99.90
43099;DHT22;28715;51.988;6.020;2023-08-06T06:51:36;18.40;99.90
43099;DHT22;28715;51.988;6.020;2023-08-06T06:54:02;18.50;99.90
43099;DHT22;28715;51.988;6.020;2023-08-06T06:56:27;18.50;99.90
43099;DHT22;28715;51.988;6.020;2023-08-06T06:58:53;18.60;99.90
43099;DHT22;28715;51.988;6.020;2023-08-06T07:01:18;18.60;99.90
43099;DHT22;28715;51.988;6.020;2023-08-06T07:03:44;18.60;99.90
43099;DHT22;28715;51.988;6.020;2023-08-06T07:06:09;18.60;99.90
43099;DHT22;28715;51.988;6.020;2023-08-06T07:08:35;18.70;99.90
43099;DHT22;28715;51.988;6.020;2023-08-06T07:11:03;18.70;99.90
43099;DHT22;28715;51.988;6.020;2023-08-06T07:13:29;18.80;99.90
43099;DHT22;28715;51.988;6.020;2023-08-06T07:15:55;18.80;99.90
43099;DHT22;28715;51.988;6.020;2023-08-06T07:18:21;18.80;99.90
43099;DHT22;28715;51.988;6.020;2023-08-06T07:20:50;18.90;99.90
43099;DHT22;28715;51.988;6.020;2023-08-06T07:23:16;18.90;99.90
43099;DHT22;28715;51.988;6.020;2023-08-06T07:25:42;18.90;99.90
43099;DHT22;28715;51.988;6.020;2023-08-06T07:28:08;19.00;99.90
43099;DHT22;28715;51.988;6.020;2023-08-06T07:30:33;18.90;99.90
43099;DHT22;28715;51.988;6.020;2023-08-06T07:32:58;18.90;99.90
43099;DHT22;28715;51.988;6.020;2023-08-06T07:35:24;19.00;99.90
43099;DHT22;28715;51.988;6.020;2023-08-06T07:37:49;19.00;99.90
43099;DHT22;28715;51.988;6.020;2023-08-06T07:40:15;19.00;99.90
43099;DHT22;28715;51.988;6.020;2023-08-06T07:42:41;19.00;99.90
43099;DHT22;28715;51.988;6.020;2023-08-06T07:45:07;19.00;99.90
43099;DHT22;28715;51.988;6.020;2023-08-06T07:47:32;19.00;99.90
43099;DHT22;28715;51.988;6.020;2023-08-06T07:49:58;18.90;99.90
43099;DHT22;28715;51.988;6.020;2023-08-06T07:52:23;19.00;99.90
43099;DHT22;28715;51.988;6.020;2023-08-06T07:54:49;19.00;99.90
43099;DHT22;28715;51.988;6.020;2023-08-06T07:57:14;19.00;99.90
43099;DHT22;28715;51.988;6.020;2023-08-06T07:59:40;19.00;99.90
43099;DHT22;28715;51.988;6.020;2023-08-06T08:02:06;19.00;99.90
43099;DHT22;28715;51.988;6.020;2023-08-06T08:04:31;19.00;99.90
43099;DHT22;28715;51.988;6.020;2023-08-06T08:06:57;19.00;99.90
43099;DHT22;28715;51.988;6.020;2023-08-06T08:09:22;19.10;99.90
43099;DHT22;28715;51.988;6.020;2023-08-06T08:11:48;19.10;99.90
43099;DHT22;28715;51.988;6.020;2023-08-06T08:14:13;19.10;99.90
43099;DHT22;28715;51.988;6.020;2023-08-06T08:16:39;19.20;99.90
43099;DHT22;28715;51.988;6.020;2023-08-06T08:19:04;19.20;99.90
43099;DHT22;28715;51.988;6.020;2023-08-06T08:21:30;19.30;99.90
43099;DHT22;28715;51.988;6.020;2023-08-06T08:23:55;19.30;99.90
43099;DHT22;28715;51.988;6.020;2023-08-06T08:26:21;19.30;99.90
43099;DHT22;28715;51.988;6.020;2023-08-06T08:28:46;19.30;99.90
43099;DHT22;28715;51.988;6.020;2023-08-06T08:31:12;19.30;99.90
43099;DHT22;28715;51.988;6.020;2023-08-06T08:33:37;19.30;99.90
43099;DHT22;28715;51.988;6.020;2023-08-06T08:36:03;19.30;99.90
43099;DHT22;28715;51.988;6.020;2023-08-06T08:38:29;19.30;99.90
43099;DHT22;28715;51.988;6.020;2023-08-06T08:40:54;19.30;99.90
43099;DHT22;28715;51.988;6.020;2023-08-06T08:43:21;19.30;99.90
43099;DHT22;28715;51.988;6.020;2023-08-06T08:45:46;19.20;99.90
43099;DHT22;28715;51.988;6.020;2023-08-06T08:48:14;19.20;99.90
43099;DHT22;28715;51.988;6.020;2023-08-06T08:50:42;19.20;99.90
43099;DHT22;28715;51.988;6.020;2023-08-06T08:53:08;19.20;99.90
43099;DHT22;28715;51.988;6.020;2023-08-06T08:55:35;19.20;99.90
43099;DHT22;28715;51.988;6.020;2023-08-06T08:58:01;19.10;99.90
43099;DHT22;28715;51.988;6.020;2023-08-06T09:00:26;19.10;99.90
43099;DHT22;28715;51.988;6.020;2023-08-06T09:02:53;19.10;99.90
43099;DHT22;28715;51.988;6.020;2023-08-06T09:05:19;19.10;99.90
43099;DHT22;28715;51.988;6.020;2023-08-06T09:07:47;19.10;99.90
43099;DHT22;28715;51.988;6.020;2023-08-06T09:10:13;19.10;99.90
43099;DHT22;28715;51.988;6.020;2023-08-06T09:12:39;19.10;99.90
43099;DHT22;28715;51.988;6.020;2023-08-06T09:15:05;19.10;99.90
43099;DHT22;28715;51.988;6.020;2023-08-06T09:17:30;19.20;99.90
43099;DHT22;28715;51.988;6.020;2023-08-06T09:19:56;19.20;99.90
43099;DHT22;28715;51.988;6.020;2023-08-06T09:22:22;19.20;99.90
43099;DHT22;28715;51.988;6.020;2023-08-06T09:24:48;19.20;99.90
43099;DHT22;28715;51.988;6.020;2023-08-06T09:27:13;19.30;99.90
43099;DHT22;28715;51.988;6.020;2023-08-06T09:29:43;19.30;99.90
43099;DHT22;28715;51.988;6.020;2023-08-06T09:32:08;19.40;99.90
43099;DHT22;28715;51.988;6.020;2023-08-06T09:34:34;19.40;99.90
43099;DHT22;28715;51.988;6.020;2023-08-06T09:37:00;19.40;99.90
43099;DHT22;28715;51.988;6.020;2023-08-06T09:39:29;19.40;99.90
43099;DHT22;28715;51.988;6.020;2023-08-06T09:41:58;19.40;99.90
43099;DHT22;28715;51.988;6.020;2023-08-06T09:44:24;19.50;99.90
43099;DHT22;28715;51.988;6.020;2023-08-06T09:46:51;19.50;99.90
43099;DHT22;28715;51.988;6.020;2023-08-06T09:49:17;19.50;99.90
43099;DHT22;28715;51.988;6.020;2023-08-06T09:51:43;19.50;99.90
43099;DHT22;28715;51.988;6.020;2023-08-06T09:54:11;19.60;99.90
43099;DHT22;28715;51.988;6.020;2023-08-06T09:56:37;19.60;99.90
43099;DHT22;28715;51.988;6.020;2023-08-06T09:59:06;19.70;99.90
43099;DHT22;28715;51.988;6.020;2023-08-06T10:01:33;19.60;99.90
43099;DHT22;28715;51.988;6.020;2023-08-06T10:03:59;19.70;99.90
43099;DHT22;28715;51.988;6.020;2023-08-06T10:06:25;19.70;99.90
43099;DHT22;28715;51.988;6.020;2023-08-06T10:08:51;19.60;99.90
43099;DHT22;28715;51.988;6.020;2023-08-06T10:11:17;19.70;99.90
43099;DHT22;28715;51.988;6.020;2023-08-06T10:13:45;19.70;99.90
43099;DHT22;28715;51.988;6.020;2023-08-06T10:16:11;19.70;99.90
43099;DHT22;28715;51.988;6.020;2023-08-06T10:18:37;19.70;99.90
43099;DHT22;28715;51.988;6.020;2023-08-06T10:21:04;19.70;99.90
43099;DHT22;28715;51.988;6.020;2023-08-06T10:23:33;19.70;99.90
43099;DHT22;28715;51.988;6.020;2023-08-06T10:25:58;19.60;99.90
43099;DHT22;28715;51.988;6.020;2023-08-06T10:28:33;19.40;99.90
43099;DHT22;28715;51.988;6.020;2023-08-06T10:30:59;19.40;99.90
43099;DHT22;28715;51.988;6.020;2023-08-06T10:33:25;19.30;99.90
43099;DHT22;28715;51.988;6.020;2023-08-06T10:36:05;19.30;99.90
43099;DHT22;28715;51.988;6.020;2023-08-06T10:38:34;19.20;99.90
43099;DHT22;28715;51.988;6.020;2023-08-06T10:41:03;19.00;99.90
43099;DHT22;28715;51.988;6.020;2023-08-06T10:43:29;18.90;99.90
43099;DHT22;28715;51.988;6.020;2023-08-06T10:45:55;18.80;99.90
43099;DHT22;28715;51.988;6.020;2023-08-06T10:48:34;18.70;99.90
43099;DHT22;28715;51.988;6.020;2023-08-06T10:51:01;18.60;99.90
43099;DHT22;28715;51.988;6.020;2023-08-06T10:53:27;18.50;99.90
43099;DHT22;28715;51.988;6.020;2023-08-06T10:55:52;18.30;99.90
43099;DHT22;28715;51.988;6.020;2023-08-06T10:58:18;18.30;99.90
43099;DHT22;28715;51.988;6.020;2023-08-06T11:00:43;18.20;99.90
43099;DHT22;28715;51.988;6.020;2023-08-06T11:03:09;18.10;99.90
43099;DHT22;28715;51.988;6.020;2023-08-06T11:05:38;17.90;99.90
43099;DHT22;28715;51.988;6.020;2023-08-06T11:08:04;17.80;99.90
43099;DHT22;28715;51.988;6.020;2023-08-06T11:10:29;17.70;99.90
43099;DHT22;28715;51.988;6.020;2023-08-06T11:12:55;17.60;99.90
43099;DHT22;28715;51.988;6.020;2023-08-06T11:15:25;17.50;99.90
43099;DHT22;28715;51.988;6.020;2023-08-06T11:17:51;17.30;99.90
43099;DHT22;28715;51.988;6.020;2023-08-06T11:20:16;17.30;99.90
43099;DHT22;28715;51.988;6.020;2023-08-06T11:22:42;17.30;99.90
43099;DHT22;28715;51.988;6.020;2023-08-06T11:25:08;17.20;99.90
43099;DHT22;28715;51.988;6.020;2023-08-06T11:27:34;17.10;99.90
43099;DHT22;28715;51.988;6.020;2023-08-06T11:29:59;17.10;99.90
43099;DHT22;28715;51.988;6.020;2023-08-06T11:32:25;17.10;99.90
43099;DHT22;28715;51.988;6.020;2023-08-06T11:34:50;17.10;99.90
43099;DHT22;28715;51.988;6.020;2023-08-06T11:37:16;17.00;99.90
43099;DHT22;28715;51.988;6.020;2023-08-06T11:39:44;17.00;99.90
43099;DHT22;28715;51.988;6.020;2023-08-06T11:42:11;17.00;99.90
43099;DHT22;28715;51.988;6.020;2023-08-06T11:44:37;16.90;99.90
43099;DHT22;28715;51.988;6.020;2023-08-06T11:47:03;16.80;99.90
43099;DHT22;28715;51.988;6.020;2023-08-06T11:52:10;16.70;99.90
43099;DHT22;28715;51.988;6.020;2023-08-06T11:54:36;16.60;99.90
43099;DHT22;28715;51.988;6.020;2023-08-06T11:57:05;16.50;99.90
43099;DHT22;28715;51.988;6.020;2023-08-06T11:59:31;16.50;99.90
43099;DHT22;28715;51.988;6.020;2023-08-06T12:01:56;16.40;99.90
43099;DHT22;28715;51.988;6.020;2023-08-06T12:04:21;16.40;99.90
43099;DHT22;28715;51.988;6.020;2023-08-06T12:06:47;16.40;99.90
43099;DHT22;28715;51.988;6.020;2023-08-06T12:09:12;16.40;99.90
43099;DHT22;28715;51.988;6.020;2023-08-06T12:11:38;16.40;99.90
43099;DHT22;28715;51.988;6.020;2023-08-06T12:14:03;16.30;99.90
43099;DHT22;28715;51.988;6.020;2023-08-06T12:16:29;16.30;99.90
43099;DHT22;28715;51.988;6.020;2023-08-06T12:18:54;16.30;99.90
43099;DHT22;28715;51.988;6.020;2023-08-06T12:21:20;16.30;99.90
43099;DHT22;28715;51.988;6.020;2023-08-06T12:23:45;16.40;99.90
43099;DHT22;28715;51.988;6.020;2023-08-06T12:26:11;16.40;99.90
43099;DHT22;28715;51.988;6.020;2023-08-06T12:28:36;16.40;99.90
43099;DHT22;28715;51.988;6.020;2023-08-06T12:31:02;16.40;99.90
43099;DHT22;28715;51.988;6.020;2023-08-06T12:33:27;16.30;99.90
43099;DHT22;28715;51.988;6.020;2023-08-06T12:35:53;16.30;99.90
43099;DHT22;28715;51.988;6.020;2023-08-06T12:38:20;16.30;99.90
43099;DHT22;28715;51.988;6.020;2023-08-06T12:40:45;16.30;99.90
43099;DHT22;28715;51.988;6.020;2023-08-06T12:43:11;16.30;99.90
43099;DHT22;28715;51.988;6.020;2023-08-06T12:45:36;16.40;99.90
43099;DHT22;28715;51.988;6.020;2023-08-06T12:48:02;16.30;99.90
43099;DHT22;28715;51.988;6.020;2023-08-06T12:50:28;16.30;99.90
43099;DHT22;28715;51.988;6.020;2023-08-06T12:52:53;16.30;99.90
43099;DHT22;28715;51.988;6.020;2023-08-06T12:55:19;16.30;99.90
43099;DHT22;28715;51.988;6.020;2023-08-06T12:57:44;16.40;99.90
43099;DHT22;28715;51.988;6.020;2023-08-06T13:00:10;16.40;99.90
43099;DHT22;28715;51.988;6.020;2023-08-06T13:02:35;16.40;99.90
43099;DHT22;28715;51.988;6.020;2023-08-06T13:05:01;16.40;99.90
43099;DHT22;28715;51.988;6.020;2023-08-06T13:07:30;16.40;99.90
43099;DHT22;28715;51.988;6.020;2023-08-06T13:09:56;16.40;99.90
43099;DHT22;28715;51.988;6.020;2023-08-06T13:12:21;16.40;99.90
43099;DHT22;28715;51.988;6.020;2023-08-06T13:14:48;16.40;99.90
43099;DHT22;28715;51.988;6.020;2023-08-06T13:17:23;16.40;99.90
43099;DHT22;28715;51.988;6.020;2023-08-06T13:19:48;16.50;99.90
43099;DHT22;28715;51.988;6.020;2023-08-06T13:22:14;16.50;99.90
43099;DHT22;28715;51.988;6.020;2023-08-06T13:24:39;16.60;99.90
43099;DHT22;28715;51.988;6.020;2023-08-06T13:27:05;16.60;99.90
43099;DHT22;28715;51.988;6.020;2023-08-06T13:29:32;16.60;99.90
43099;DHT22;28715;51.988;6.020;2023-08-06T13:31:57;16.70;99.90
43099;DHT22;28715;51.988;6.020;2023-08-06T13:34:22;16.60;99.90
43099;DHT22;28715;51.988;6.020;2023-08-06T13:36:48;16.60;99.90
43099;DHT22;28715;51.988;6.020;2023-08-06T13:39:15;16.60;99.90
43099;DHT22;28715;51.988;6.020;2023-08-06T13:41:42;16.60;99.90
43099;DHT22;28715;51.988;6.020;2023-08-06T13:44:08;16.70;99.90
43099;DHT22;28715;51.988;6.020;2023-08-06T13:46:33;16.60;99.90
43099;DHT22;28715;51.988;6.020;2023-08-06T13:48:59;16.60;99.90
43099;DHT22;28715;51.988;6.020;2023-08-06T13:51:24;16.60;99.90
43099;DHT22;28715;51.988;6.020;2023-08-06T13:53:50;16.60;99.90
43099;DHT22;28715;51.988;6.020;2023-08-06T13:56:17;16.60;99.90
43099;DHT22;28715;51.988;6.020;2023-08-06T13:58:43;16.60;99.90
43099;DHT22;28715;51.988;6.020;2023-08-06T14:01:09;16.60;99.90
43099;DHT22;28715;51.988;6.020;2023-08-06T14:03:35;16.60;99.90
43099;DHT22;28715;51.988;6.020;2023-08-06T14:06:00;16.70;99.90
43099;DHT22;28715;51.988;6.020;2023-08-06T14:08:26;16.70;99.90
43099;DHT22;28715;51.988;6.020;2023-08-06T14:10:51;16.60;99.90
43099;DHT22;28715;51.988;6.020;2023-08-06T14:13:17;16.60;99.90
43099;DHT22;28715;51.988;6.020;2023-08-06T14:15:43;16.60;99.90
43099;DHT22;28715;51.988;6.020;2023-08-06T14:18:12;16.60;99.90
43099;DHT22;28715;51.988;6.020;2023-08-06T14:20:38;16.60;99.90
43099;DHT22;28715;51.988;6.020;2023-08-06T14:23:03;16.70;99.90
43099;DHT22;28715;51.988;6.020;2023-08-06T14:25:29;16.70;99.90
43099;DHT22;28715;51.988;6.020;2023-08-06T14:27:54;16.70;99.90
43099;DHT22;28715;51.988;6.020;2023-08-06T14:30:20;16.70;99.90
43099;DHT22;28715;51.988;6.020;2023-08-06T14:32:45;16.60;99.90
43099;DHT22;28715;51.988;6.020;2023-08-06T14:35:11;16.70;99.90
43099;DHT22;28715;51.988;6.020;2023-08-06T14:37:36;16.70;99.90
43099;DHT22;28715;51.988;6.020;2023-08-06T14:40:02;16.70;99.90
43099;DHT22;28715;51.988;6.020;2023-08-06T14:42:27;16.80;99.90
43099;DHT22;28715;51.988;6.020;2023-08-06T14:44:53;16.80;99.90
43099;DHT22;28715;51.988;6.020;2023-08-06T14:47:18;16.80;99.90
43099;DHT22;28715;51.988;6.020;2023-08-06T14:49:44;16.80;99.90
43099;DHT22;28715;51.988;6.020;2023-08-06T14:52:10;16.90;99.90
43099;DHT22;28715;51.988;6.020;2023-08-06T14:54:35;16.90;99.90
43099;DHT22;28715;51.988;6.020;2023-08-06T14:57:01;17.00;99.90
43099;DHT22;28715;51.988;6.020;2023-08-06T14:59:26;17.00;99.90
43099;DHT22;28715;51.988;6.020;2023-08-06T15:01:52;17.00;99.90
43099;DHT22;28715;51.988;6.020;2023-08-06T15:04:18;17.00;99.90
43099;DHT22;28715;51.988;6.020;2023-08-06T15:06:46;17.10;99.90
43099;DHT22;28715;51.988;6.020;2023-08-06T15:09:12;17.10;99.90
43099;DHT22;28715;51.988;6.020;2023-08-06T15:11:37;17.10;99.90
43099;DHT22;28715;51.988;6.020;2023-08-06T15:14:03;17.10;99.90
43099;DHT22;28715;51.988;6.020;2023-08-06T15:16:33;17.20;99.90
43099;DHT22;28715;51.988;6.020;2023-08-06T15:18:59;17.20;99.90
43099;DHT22;28715;51.988;6.020;2023-08-06T15:21:25;17.20;99.90
43099;DHT22;28715;51.988;6.020;2023-08-06T15:23:51;17.20;99.90
43099;DHT22;28715;51.988;6.020;2023-08-06T15:26:16;17.10;99.90
43099;DHT22;28715;51.988;6.020;2023-08-06T15:28:41;17.10;99.90
43099;DHT22;28715;51.988;6.020;2023-08-06T15:31:07;17.10;99.90
43099;DHT22;28715;51.988;6.020;2023-08-06T15:33:34;17.20;99.90
43099;DHT22;28715;51.988;6.020;2023-08-06T15:35:59;17.20;99.90
43099;DHT22;28715;51.988;6.020;2023-08-06T15:38:25;17.20;99.90
43099;DHT22;28715;51.988;6.020;2023-08-06T15:40:50;17.20;99.90
43099;DHT22;28715;51.988;6.020;2023-08-06T15:43:16;17.30;99.90
43099;DHT22;28715;51.988;6.020;2023-08-06T15:45:41;17.30;99.90
43099;DHT22;28715;51.988;6.020;2023-08-06T15:48:07;17.30;99.90
43099;DHT22;28715;51.988;6.020;2023-08-06T15:50:36;17.40;99.90
43099;DHT22;28715;51.988;6.020;2023-08-06T15:53:01;17.50;99.90
43099;DHT22;28715;51.988;6.020;2023-08-06T15:55:27;17.50;99.90
43099;DHT22;28715;51.988;6.020;2023-08-06T15:57:52;17.60;99.90
43099;DHT22;28715;51.988;6.020;2023-08-06T16:00:18;17.60;99.90
43099;DHT22;28715;51.988;6.020;2023-08-06T16:02:44;17.60;99.90
43099;DHT22;28715;51.988;6.020;2023-08-06T16:05:09;17.70;99.90
43099;DHT22;28715;51.988;6.020;2023-08-06T16:07:35;17.70;99.90
43099;DHT22;28715;51.988;6.020;2023-08-06T16:10:01;17.70;99.90
43099;DHT22;28715;51.988;6.020;2023-08-06T16:12:26;17.80;99.90
43099;DHT22;28715;51.988;6.020;2023-08-06T16:14:52;17.80;99.90
43099;DHT22;28715;51.988;6.020;2023-08-06T16:17:18;17.80;99.90
43099;DHT22;28715;51.988;6.020;2023-08-06T16:19:43;17.80;99.90
43099;DHT22;28715;51.988;6.020;2023-08-06T16:22:09;17.70;99.90
43099;DHT22;28715;51.988;6.020;2023-08-06T16:24:35;17.60;99.90
43099;DHT22;28715;51.988;6.020;2023-08-06T16:27:00;17.60;99.90